createdAt,value
2018-06-18T00:00:54.164Z,16.90
2018-06-18T00:03:21.966Z,16.90
2018-06-18T00:08:17.946Z,16.90
2018-06-18T00:10:46.121Z,16.80
2018-06-18T00:13:14.003Z,16.80
2018-06-18T00:15:41.905Z,16.80
2018-06-18T00:18:10.057Z,16.80
2018-06-18T00:20:38.205Z,16.80
2018-06-18T00:23:05.981Z,16.90
2018-06-18T00:25:33.839Z,16.90
2018-06-18T00:28:01.605Z,16.90
2018-06-18T00:30:29.778Z,17.00
2018-06-18T00:32:57.542Z,17.00
2018-06-18T00:35:25.456Z,17.10
2018-06-18T00:37:53.178Z,17.10
2018-06-18T00:40:21.348Z,17.20
2018-06-18T00:42:49.074Z,17.20
2018-06-18T00:45:16.990Z,17.20
2018-06-18T00:47:45.226Z,17.20
2018-06-18T00:50:13.012Z,17.30
2018-06-18T00:52:41.218Z,17.30
2018-06-18T00:55:09.114Z,17.30
2018-06-18T00:57:37.190Z,17.30
2018-06-18T01:00:05.296Z,17.30
2018-06-18T01:02:33.026Z,17.30
2018-06-18T01:05:01.101Z,17.40
2018-06-18T01:07:29.219Z,17.40
2018-06-18T01:09:56.994Z,17.50
2018-06-18T01:12:25.091Z,17.40
2018-06-18T01:14:53.099Z,17.40
2018-06-18T01:17:20.910Z,17.40
2018-06-18T01:19:49.217Z,17.40
2018-06-18T01:22:16.976Z,17.40
2018-06-18T01:24:55.954Z,17.40
2018-06-18T01:27:24.215Z,17.40
2018-06-18T01:29:52.291Z,17.40
2018-06-18T01:32:20.190Z,17.40
2018-06-18T01:34:47.976Z,17.40
2018-06-18T01:37:16.364Z,17.40
2018-06-18T01:39:44.643Z,17.40
2018-06-18T01:42:12.513Z,17.50
2018-06-18T01:44:40.290Z,17.50
2018-06-18T01:47:08.337Z,17.50
2018-06-18T01:49:36.571Z,17.50
2018-06-18T01:52:04.600Z,17.50
2018-06-18T01:54:32.621Z,17.50
2018-06-18T01:57:00.693Z,17.60
2018-06-18T01:59:28.716Z,17.60
2018-06-18T02:01:57.754Z,17.60
2018-06-18T02:04:26.430Z,17.60
2018-06-18T02:06:54.402Z,17.60
2018-06-18T02:09:23.629Z,17.60
2018-06-18T02:11:52.009Z,17.60
2018-06-18T02:14:20.219Z,17.50
2018-06-18T02:16:48.339Z,17.50
2018-06-18T02:19:16.391Z,17.50
2018-06-18T02:21:44.461Z,17.40
2018-06-18T02:24:12.548Z,17.50
2018-06-18T02:26:40.261Z,17.40
2018-06-18T02:29:13.726Z,17.40
2018-06-18T02:31:47.517Z,17.40
2018-06-18T02:34:21.334Z,17.40
2018-06-18T02:36:54.729Z,17.30
2018-06-18T02:39:22.509Z,17.30
2018-06-18T02:41:50.537Z,17.30
2018-06-18T02:44:18.301Z,17.20
2018-06-18T02:46:46.173Z,17.10
2018-06-18T02:49:14.277Z,17.10
2018-06-18T02:51:42.183Z,17.10
2018-06-18T02:54:10.275Z,17.00
2018-06-18T02:56:46.725Z,16.90
2018-06-18T02:59:14.852Z,16.90
2018-06-18T03:01:42.867Z,16.70
2018-06-18T03:04:11.685Z,16.90
2018-06-18T03:06:39.681Z,16.90
2018-06-18T03:09:09.510Z,16.90
2018-06-18T03:11:37.849Z,16.70
2018-06-18T03:14:06.588Z,16.90
2018-06-18T03:16:34.613Z,16.90
2018-06-18T03:19:08.071Z,16.90
2018-06-18T03:21:41.536Z,16.90
2018-06-18T03:24:11.158Z,16.90
2018-06-18T03:26:44.779Z,16.90
2018-06-18T03:29:16.893Z,16.90
2018-06-18T03:31:45.353Z,17.00
2018-06-18T03:34:13.089Z,17.00
2018-06-18T03:36:41.613Z,17.20
2018-06-18T03:39:11.852Z,17.10
2018-06-18T03:41:40.128Z,17.10
2018-06-18T03:44:11.714Z,17.10
2018-06-18T03:46:39.747Z,17.20
2018-06-18T03:49:07.887Z,17.20
2018-06-18T03:51:35.683Z,17.10
2018-06-18T03:54:03.823Z,17.30
2018-06-18T03:56:31.569Z,17.30
2018-06-18T03:58:59.383Z,17.30
2018-06-18T04:01:49.358Z,17.40
2018-06-18T04:04:23.012Z,17.40
2018-06-18T04:06:56.518Z,17.50
2018-06-18T04:09:30.171Z,17.70
2018-06-18T04:12:05.460Z,17.80
2018-06-18T04:14:33.604Z,17.90
2018-06-18T04:17:01.967Z,18.00
2018-06-18T04:19:30.095Z,18.10
2018-06-18T04:21:58.263Z,18.20
2018-06-18T04:24:26.327Z,18.30
2018-06-18T04:26:54.883Z,18.50
2018-06-18T04:29:22.663Z,18.50
2018-06-18T04:31:52.144Z,18.80
2018-06-18T04:34:30.759Z,19.20
2018-06-18T04:36:59.027Z,19.40
2018-06-18T04:39:27.223Z,19.50
2018-06-18T04:42:00.546Z,19.50
2018-06-18T04:44:33.854Z,19.50
2018-06-18T04:47:07.354Z,19.40
2018-06-18T04:49:40.814Z,19.40
2018-06-18T04:52:09.846Z,19.40
2018-06-18T04:54:37.784Z,19.40
2018-06-18T04:57:05.863Z,19.40
2018-06-18T04:59:35.353Z,19.50
2018-06-18T05:02:04.425Z,19.60
2018-06-18T05:04:32.628Z,19.60
2018-06-18T05:07:00.475Z,19.70
2018-06-18T05:10:09.976Z,19.70
2018-06-18T05:12:37.876Z,19.80
2018-06-18T05:15:05.596Z,19.90
2018-06-18T05:17:33.366Z,20.10
2018-06-18T05:20:01.468Z,20.80
2018-06-18T05:22:29.533Z,22.40
2018-06-18T05:24:57.261Z,24.10
2018-06-18T05:27:28.675Z,25.60
2018-06-18T05:29:58.689Z,26.50
2018-06-18T05:32:26.444Z,26.90
2018-06-18T05:34:54.597Z,26.80
2018-06-18T05:37:29.993Z,26.90
2018-06-18T05:39:58.428Z,27.10
2018-06-18T05:42:26.497Z,27.10
2018-06-18T05:44:54.279Z,26.90
2018-06-18T05:47:22.175Z,26.60
2018-06-18T05:49:50.215Z,26.00
2018-06-18T05:52:18.419Z,25.60
2018-06-18T05:54:46.242Z,25.30
2018-06-18T05:57:14.649Z,25.00
2018-06-18T05:59:42.514Z,24.70
2018-06-18T06:02:10.305Z,24.50
2018-06-18T06:04:38.688Z,24.40
2018-06-18T06:07:06.454Z,24.30
2018-06-18T06:09:34.878Z,24.10
2018-06-18T06:12:03.154Z,24.00
2018-06-18T06:14:30.900Z,23.90
2018-06-18T06:16:58.689Z,23.70
2018-06-18T06:19:26.410Z,23.80
2018-06-18T06:21:54.718Z,24.20
2018-06-18T06:24:22.948Z,24.70
2018-06-18T06:26:51.094Z,25.30
2018-06-18T06:29:19.220Z,25.90
2018-06-18T06:31:47.070Z,26.40
2018-06-18T06:34:15.104Z,26.70
2018-06-18T06:36:43.196Z,27.40
2018-06-18T06:39:11.902Z,27.90
2018-06-18T06:41:42.195Z,28.60
2018-06-18T06:44:10.262Z,29.10
2018-06-18T06:46:39.075Z,29.60
2018-06-18T06:49:07.238Z,30.00
2018-06-18T06:51:35.096Z,30.40
2018-06-18T06:54:02.977Z,30.50
2018-06-18T06:56:30.911Z,30.70
2018-06-18T06:58:58.812Z,31.40
2018-06-18T07:01:26.992Z,32.10
2018-06-18T07:03:55.116Z,32.50
2018-06-18T07:06:22.906Z,33.00
2018-06-18T07:08:50.759Z,33.40
2018-06-18T07:11:18.596Z,33.50
2018-06-18T07:13:46.372Z,33.80
2018-06-18T07:16:14.190Z,33.90
2018-06-18T07:18:42.454Z,33.70
2018-06-18T07:21:10.748Z,33.80
2018-06-18T07:23:38.602Z,34.10
2018-06-18T07:26:06.667Z,34.50
2018-06-18T07:28:34.482Z,35.00
2018-06-18T07:31:02.787Z,35.70
2018-06-18T07:33:31.154Z,36.40
2018-06-18T07:35:59.047Z,36.60
2018-06-18T07:38:27.081Z,36.80
2018-06-18T07:40:55.044Z,37.50
2018-06-18T07:43:22.846Z,37.80
2018-06-18T07:45:50.821Z,38.50
2018-06-18T07:48:18.599Z,38.80
2018-06-18T07:50:46.317Z,38.70
2018-06-18T07:53:14.143Z,38.50
2018-06-18T07:55:42.154Z,38.40
2018-06-18T07:58:10.194Z,38.80
2018-06-18T08:00:38.161Z,39.10
2018-06-18T08:03:06.196Z,40.10
2018-06-18T08:05:34.262Z,41.20
2018-06-18T08:08:02.466Z,41.90
2018-06-18T08:10:30.330Z,42.20
2018-06-18T08:12:58.381Z,42.20
2018-06-18T08:15:26.698Z,42.20
2018-06-18T08:17:54.475Z,41.60
2018-06-18T08:20:22.278Z,41.40
2018-06-18T08:22:50.163Z,41.70
2018-06-18T08:25:18.244Z,41.90
2018-06-18T08:27:46.364Z,42.50
2018-06-18T08:30:14.308Z,43.00
2018-06-18T08:32:42.370Z,42.20
2018-06-18T08:35:10.411Z,41.90
2018-06-18T08:37:38.279Z,41.90
2018-06-18T08:40:06.149Z,42.20
2018-06-18T08:42:33.908Z,42.20
2018-06-18T08:45:01.803Z,42.20
2018-06-18T08:47:29.849Z,42.20
2018-06-18T08:50:03.281Z,42.70
2018-06-18T08:52:36.739Z,43.10
2018-06-18T08:55:10.314Z,42.90
2018-06-18T08:57:43.614Z,42.20
2018-06-18T09:00:17.230Z,41.20
2018-06-18T09:02:52.467Z,39.70
2018-06-18T09:05:26.439Z,37.80
2018-06-18T09:07:58.976Z,36.30
2018-06-18T09:10:27.090Z,34.60
2018-06-18T09:12:54.860Z,33.30
2018-06-18T09:15:22.902Z,32.10
2018-06-18T09:17:50.842Z,31.20
2018-06-18T09:20:19.300Z,30.70
2018-06-18T09:22:47.374Z,30.00
2018-06-18T09:25:15.551Z,29.40
2018-06-18T09:27:43.854Z,29.00
2018-06-18T09:30:12.031Z,28.90
2018-06-18T09:32:40.297Z,28.60
2018-06-18T09:35:08.363Z,28.40
2018-06-18T09:37:36.117Z,28.40
2018-06-18T09:40:04.315Z,28.40
2018-06-18T09:42:32.995Z,28.50
2018-06-18T09:45:01.306Z,28.60
2018-06-18T09:47:29.145Z,28.60
2018-06-18T09:50:03.209Z,28.60
2018-06-18T09:55:10.182Z,28.40
2018-06-18T09:57:43.861Z,28.30
2018-06-18T10:00:26.935Z,28.30
2018-06-18T10:02:55.471Z,28.20
2018-06-18T10:05:23.744Z,28.40
2018-06-18T10:07:51.887Z,28.60
2018-06-18T10:10:20.072Z,28.80
2018-06-18T10:12:48.150Z,28.90
2018-06-18T10:15:15.906Z,28.70
2018-06-18T10:17:43.926Z,28.50
2018-06-18T10:20:12.268Z,28.40
2018-06-18T10:22:40.146Z,28.40
2018-06-18T10:25:07.902Z,28.50
2018-06-18T10:27:36.054Z,28.50
2018-06-18T10:30:04.176Z,28.40
2018-06-18T10:32:37.502Z,28.50
2018-06-18T10:35:11.258Z,28.40
2018-06-18T10:37:44.902Z,28.30
2018-06-18T10:40:18.251Z,28.50
2018-06-18T10:42:52.037Z,28.50
2018-06-18T10:45:19.814Z,28.50
2018-06-18T10:47:47.995Z,28.50
2018-06-18T10:50:15.965Z,28.50
2018-06-18T10:52:44.027Z,28.50
2018-06-18T10:55:11.762Z,28.60
2018-06-18T10:57:40.175Z,28.60
2018-06-18T11:00:09.705Z,28.60
2018-06-18T11:02:37.835Z,28.60
2018-06-18T11:05:06.028Z,28.70
2018-06-18T11:07:33.902Z,28.70
2018-06-18T11:10:01.752Z,28.80
2018-06-18T11:12:29.766Z,28.90
2018-06-18T11:14:57.495Z,29.00
2018-06-18T11:17:31.531Z,29.00
2018-06-18T11:20:05.393Z,29.10
2018-06-18T11:22:39.078Z,29.10
2018-06-18T11:25:12.662Z,29.10
2018-06-18T11:27:40.467Z,29.20
2018-06-18T11:30:08.498Z,29.30
2018-06-18T11:32:36.288Z,29.10
2018-06-18T11:35:05.210Z,28.90
2018-06-18T11:37:33.517Z,28.80
2018-06-18T11:40:01.556Z,28.60
2018-06-18T11:42:29.950Z,28.30
2018-06-18T11:44:57.734Z,28.10
2018-06-18T11:47:25.482Z,28.00
2018-06-18T11:49:53.238Z,27.90
2018-06-18T11:52:21.129Z,27.80
2018-06-18T11:54:48.934Z,27.70
2018-06-18T11:57:16.789Z,27.70
2018-06-18T11:59:50.271Z,27.60
2018-06-18T12:02:23.777Z,27.60
2018-06-18T12:04:57.279Z,27.50
2018-06-18T12:07:30.672Z,27.40
2018-06-18T12:09:58.804Z,27.40
2018-06-18T12:12:26.514Z,27.50
2018-06-18T12:14:54.848Z,27.60
2018-06-18T12:17:23.098Z,27.80
2018-06-18T12:19:51.154Z,27.90
2018-06-18T12:22:19.272Z,27.90
2018-06-18T12:24:47.334Z,27.90
2018-06-18T12:27:18.683Z,28.10
2018-06-18T12:29:46.762Z,28.00
2018-06-18T12:34:42.993Z,27.80
2018-06-18T12:37:11.148Z,27.80
2018-06-18T12:39:39.027Z,27.90
2018-06-18T12:42:07.753Z,27.90
2018-06-18T12:47:15.471Z,27.80
2018-06-18T12:49:49.147Z,27.70
2018-06-18T12:52:22.583Z,27.60
2018-06-18T12:54:55.929Z,27.70
2018-06-18T12:57:23.687Z,27.70
2018-06-18T12:59:51.765Z,27.80
2018-06-18T13:02:34.058Z,28.00
2018-06-18T13:05:02.251Z,28.00
2018-06-18T13:07:30.395Z,27.90
2018-06-18T13:09:58.632Z,27.80
2018-06-18T13:12:27.071Z,27.70
2018-06-18T13:14:55.083Z,27.50
2018-06-18T13:17:23.159Z,27.30
2018-06-18T13:19:51.248Z,27.20
2018-06-18T13:22:19.073Z,27.20
2018-06-18T13:24:47.231Z,27.20
2018-06-18T13:27:15.287Z,27.30
2018-06-18T13:29:43.457Z,27.30
2018-06-18T13:32:11.748Z,27.30
2018-06-18T13:34:39.836Z,27.40
2018-06-18T13:37:13.390Z,27.60
2018-06-18T13:39:46.823Z,27.60
2018-06-18T13:44:25.599Z,27.50
2018-06-18T13:46:59.060Z,27.50
2018-06-18T13:49:33.046Z,27.50
2018-06-18T13:52:00.860Z,27.50
2018-06-18T13:54:29.003Z,27.60
2018-06-18T13:56:57.058Z,27.70
2018-06-18T13:59:24.778Z,27.70
2018-06-18T14:01:52.822Z,27.70
2018-06-18T14:04:21.128Z,27.70
2018-06-18T14:06:49.220Z,27.80
2018-06-18T14:09:17.343Z,27.90
2018-06-18T14:11:46.030Z,28.00
2018-06-18T14:16:41.552Z,28.10
2018-06-18T14:19:15.081Z,28.10
2018-06-18T14:21:43.033Z,28.00
2018-06-18T14:26:39.090Z,28.00
2018-06-18T14:29:10.674Z,28.00
2018-06-18T14:31:44.658Z,27.90
2018-06-18T14:34:18.427Z,27.90
2018-06-18T14:36:51.832Z,27.90
2018-06-18T14:39:25.223Z,27.80
2018-06-18T14:41:53.113Z,27.80
2018-06-18T14:44:20.905Z,27.70
2018-06-18T14:46:48.722Z,27.70
2018-06-18T14:49:16.701Z,27.60
2018-06-18T14:51:44.812Z,27.60
2018-06-18T14:54:12.581Z,27.50
2018-06-18T14:56:40.723Z,27.50
2018-06-18T14:59:13.080Z,27.40
2018-06-18T15:01:40.847Z,27.40
2018-06-18T15:04:08.712Z,27.50
2018-06-18T15:06:36.486Z,27.40
2018-06-18T15:09:07.762Z,27.40
2018-06-18T15:11:35.473Z,27.50
2018-06-18T15:14:03.613Z,27.50
2018-06-18T15:16:32.287Z,27.40
2018-06-18T15:19:01.317Z,27.40
2018-06-18T15:21:31.641Z,27.40
2018-06-18T15:24:01.679Z,27.30
2018-06-18T15:26:30.064Z,27.20
2018-06-18T15:28:58.205Z,27.10
2018-06-18T15:31:26.400Z,27.00
2018-06-18T15:33:54.346Z,26.90
2018-06-18T15:36:22.480Z,26.90
2018-06-18T15:38:50.261Z,26.80
2018-06-18T15:41:18.161Z,26.80
2018-06-18T15:43:46.380Z,26.80
2018-06-18T15:46:14.168Z,26.70
2018-06-18T15:48:41.953Z,26.50
2018-06-18T15:51:09.854Z,26.60
2018-06-18T15:53:37.868Z,26.60
2018-06-18T15:56:05.885Z,26.50
2018-06-18T15:58:33.991Z,26.40
2018-06-18T16:01:01.825Z,26.30
2018-06-18T16:03:29.707Z,26.20
2018-06-18T16:05:57.472Z,25.90
2018-06-18T16:08:25.933Z,26.00
2018-06-18T16:10:54.016Z,25.90
2018-06-18T16:13:22.487Z,25.90
2018-06-18T16:15:50.263Z,25.90
2018-06-18T16:18:18.382Z,25.90
2018-06-18T16:20:46.218Z,25.90
2018-06-18T16:23:14.490Z,25.90
2018-06-18T16:25:42.984Z,25.90
2018-06-18T16:28:13.937Z,25.90
2018-06-18T16:30:42.348Z,25.80
2018-06-18T16:33:10.072Z,25.80
2018-06-18T16:35:38.165Z,25.80
2018-06-18T16:38:06.082Z,25.70
2018-06-18T16:40:34.438Z,25.70
2018-06-18T16:43:02.282Z,25.70
2018-06-18T16:45:30.316Z,25.60
2018-06-18T16:47:58.251Z,25.60
2018-06-18T16:50:26.243Z,25.50
2018-06-18T16:52:54.295Z,25.40
2018-06-18T16:55:22.583Z,25.40
2018-06-18T16:57:50.599Z,25.40
2018-06-18T17:00:18.464Z,25.40
2018-06-18T17:02:46.543Z,25.30
2018-06-18T17:05:14.352Z,25.30
2018-06-18T17:07:42.110Z,25.20
2018-06-18T17:10:09.895Z,25.20
2018-06-18T17:12:37.926Z,25.10
2018-06-18T17:15:05.830Z,25.10
2018-06-18T17:17:33.889Z,25.00
2018-06-18T17:20:01.750Z,25.00
2018-06-18T17:22:29.647Z,25.00
2018-06-18T17:24:57.751Z,24.90
2018-06-18T17:27:25.557Z,24.80
2018-06-18T17:29:53.737Z,24.80
2018-06-18T17:32:21.924Z,24.80
2018-06-18T17:34:50.417Z,24.70
2018-06-18T17:37:18.275Z,24.70
2018-06-18T17:39:46.343Z,24.60
2018-06-18T17:42:14.531Z,24.60
2018-06-18T17:44:42.628Z,24.50
2018-06-18T17:47:10.354Z,24.50
2018-06-18T17:49:38.821Z,24.50
2018-06-18T17:52:06.786Z,24.40
2018-06-18T17:54:34.886Z,24.40
2018-06-18T17:57:02.733Z,24.40
2018-06-18T17:59:30.550Z,24.40
2018-06-18T18:01:58.367Z,24.30
2018-06-18T18:04:26.188Z,24.30
2018-06-18T18:06:54.011Z,24.20
2018-06-18T18:09:22.134Z,24.20
2018-06-18T18:11:50.075Z,24.20
2018-06-18T18:14:18.137Z,24.10
2018-06-18T18:16:46.213Z,24.00
2018-06-18T18:19:14.275Z,24.00
2018-06-18T18:21:42.440Z,23.90
2018-06-18T18:26:38.327Z,23.80
2018-06-18T18:29:06.014Z,23.80
2018-06-18T18:31:33.780Z,23.70
2018-06-18T18:34:02.542Z,23.70
2018-06-18T18:36:30.644Z,23.60
2018-06-18T18:38:58.514Z,23.50
2018-06-18T18:41:26.326Z,23.50
2018-06-18T18:43:54.329Z,23.40
2018-06-18T18:46:22.208Z,23.40
2018-06-18T18:48:50.023Z,23.40
2018-06-18T18:51:18.099Z,23.40
2018-06-18T18:53:45.918Z,23.30
2018-06-18T18:56:25.100Z,23.30
2018-06-18T18:59:28.044Z,23.30
2018-06-18T19:01:56.165Z,23.20
2018-06-18T19:04:33.210Z,23.10
2018-06-18T19:07:01.519Z,23.10
2018-06-18T19:09:33.959Z,23.00
2018-06-18T19:14:29.539Z,22.90
2018-06-18T19:16:57.774Z,22.90
2018-06-18T19:19:28.998Z,22.80
2018-06-18T19:21:56.956Z,22.80
2018-06-18T19:24:24.790Z,22.70
2018-06-18T19:26:52.652Z,22.70
2018-06-18T19:29:20.470Z,22.70
2018-06-18T19:34:21.453Z,22.60
2018-06-18T19:36:51.868Z,22.50
2018-06-18T19:39:20.771Z,22.40
2018-06-18T19:41:49.202Z,22.40
2018-06-18T19:44:17.154Z,22.30
2018-06-18T19:47:52.284Z,22.30
2018-06-18T19:50:20.109Z,22.30
2018-06-18T19:52:48.207Z,22.20
2018-06-18T19:55:19.989Z,22.20
2018-06-18T19:57:47.795Z,22.20
2018-06-18T20:00:15.597Z,22.20
2018-06-18T20:02:43.490Z,22.10
2018-06-18T20:05:12.523Z,22.10
2018-06-18T20:08:47.132Z,22.10
2018-06-18T20:11:14.942Z,22.10
2018-06-18T20:13:42.990Z,22.00
2018-06-18T20:16:10.812Z,22.00
2018-06-18T20:18:38.632Z,21.90
2018-06-18T20:21:06.776Z,21.90
2018-06-18T20:23:34.678Z,21.80
2018-06-18T20:26:08.226Z,21.80
2018-06-18T20:28:36.183Z,21.80
2018-06-18T20:31:04.127Z,21.80
2018-06-18T20:33:33.608Z,21.70
2018-06-18T20:36:06.300Z,21.70
2018-06-18T20:38:34.167Z,21.60
2018-06-18T20:41:03.252Z,21.60
2018-06-18T20:43:46.910Z,21.60
2018-06-18T20:46:15.011Z,21.50
2018-06-18T20:48:43.388Z,21.50
2018-06-18T20:51:11.208Z,21.50
2018-06-18T20:53:38.956Z,21.50
2018-06-18T20:56:06.931Z,21.40
2018-06-18T20:58:35.118Z,21.40
2018-06-18T21:01:03.427Z,21.30
2018-06-18T21:03:32.056Z,21.30
2018-06-18T21:06:00.151Z,21.20
2018-06-18T21:08:28.047Z,21.10
2018-06-18T21:10:55.983Z,21.00
2018-06-18T21:13:25.070Z,21.00
2018-06-18T21:15:53.229Z,20.90
2018-06-18T21:18:21.112Z,20.80
2018-06-18T21:20:49.034Z,20.80
2018-06-18T21:23:16.802Z,20.70
2018-06-18T21:25:45.346Z,20.70
2018-06-18T21:28:14.508Z,20.60
2018-06-18T21:30:42.496Z,20.50
2018-06-18T21:33:10.531Z,20.50
2018-06-18T21:35:39.402Z,20.40
2018-06-18T21:38:07.150Z,20.40
2018-06-18T21:40:35.271Z,20.30
2018-06-18T21:43:03.066Z,20.30
2018-06-18T21:45:31.223Z,20.20
2018-06-18T21:47:59.317Z,20.20
2018-06-18T21:50:27.318Z,20.10
2018-06-18T21:52:55.139Z,20.10
2018-06-18T21:55:23.243Z,20.10
2018-06-18T21:57:51.410Z,20.10
2018-06-18T22:00:37.215Z,20.10
2018-06-18T22:03:05.192Z,20.00
2018-06-18T22:05:32.918Z,20.00
2018-06-18T22:08:01.918Z,20.00
2018-06-18T22:10:29.817Z,19.90
2018-06-18T22:12:57.992Z,19.90
2018-06-18T22:15:26.133Z,19.90
2018-06-18T22:17:53.908Z,19.80
2018-06-18T22:20:21.726Z,19.80
2018-06-18T22:22:49.945Z,19.80
2018-06-18T22:25:17.805Z,19.80
2018-06-18T22:30:14.181Z,19.60
2018-06-18T22:32:42.052Z,19.60
2018-06-18T22:35:09.883Z,19.50
2018-06-18T22:37:37.701Z,19.50
2018-06-18T22:40:05.646Z,19.40
2018-06-18T22:42:33.409Z,19.30
2018-06-18T22:45:01.173Z,19.30
2018-06-18T22:47:29.515Z,19.30
2018-06-18T22:49:57.273Z,19.30
2018-06-18T22:52:25.105Z,19.20
2018-06-18T22:54:52.950Z,19.20
2018-06-18T22:57:20.783Z,19.20
2018-06-18T22:59:48.697Z,19.20
2018-06-18T23:02:20.568Z,19.20
2018-06-18T23:04:48.374Z,19.10
2018-06-18T23:07:16.754Z,19.20
2018-06-18T23:09:44.850Z,19.10
2018-06-18T23:12:12.790Z,19.10
2018-06-18T23:14:41.086Z,19.00
2018-06-18T23:17:09.137Z,19.00
2018-06-18T23:19:37.222Z,19.00
2018-06-18T23:22:05.217Z,19.00
2018-06-18T23:24:33.385Z,18.90
2018-06-18T23:27:02.472Z,18.80
2018-06-18T23:29:31.032Z,18.80
2018-06-18T23:31:59.033Z,18.70
2018-06-18T23:34:26.881Z,18.80
2018-06-18T23:36:55.756Z,18.60
2018-06-18T23:39:23.670Z,18.60
2018-06-18T23:41:53.656Z,18.60
2018-06-18T23:44:21.756Z,18.60
2018-06-18T23:46:49.675Z,18.60
2018-06-18T23:49:17.562Z,18.50
2018-06-18T23:51:45.614Z,18.50
2018-06-18T23:54:13.699Z,18.40
2018-06-18T23:56:41.915Z,18.40
2018-06-18T23:59:10.063Z,18.30
